createdAt,value
2023-11-07T00:00:35.919Z,96.50
2023-11-07T00:02:41.077Z,96.30
2023-11-07T00:04:46.821Z,96.20
2023-11-07T00:06:52.857Z,96.40
2023-11-07T00:08:58.042Z,96.10
2023-11-07T00:11:03.776Z,95.90
2023-11-07T00:13:06.381Z,96.20
2023-11-07T00:15:15.172Z,96.20
2023-11-07T00:17:22.682Z,95.90
2023-11-07T00:19:28.217Z,95.80
2023-11-07T00:21:31.226Z,95.60
2023-11-07T00:23:36.477Z,95.50
2023-11-07T00:25:41.669Z,95.40
2023-11-07T00:27:47.388Z,95.60
2023-11-07T00:29:50.036Z,95.70
2023-11-07T00:31:58.550Z,95.60
2023-11-07T00:34:04.548Z,95.40
2023-11-07T00:36:12.158Z,94.80
2023-11-07T00:38:17.345Z,95.10
2023-11-07T00:40:23.653Z,95.30
2023-11-07T00:42:29.809Z,95.10
2023-11-07T00:44:35.198Z,95.10
2023-11-07T00:46:40.946Z,95.30
2023-11-07T00:48:48.741Z,94.80
2023-11-07T00:50:53.918Z,95.10
2023-11-07T00:52:59.902Z,95.10
2023-11-07T00:55:05.020Z,95.20
2023-11-07T00:57:11.323Z,94.60
2023-11-07T00:59:17.038Z,94.60
2023-11-07T01:01:22.190Z,94.90
2023-11-07T01:03:27.944Z,95.20
2023-11-07T01:05:35.981Z,95.00
2023-11-07T01:07:42.173Z,94.70
2023-11-07T01:09:45.126Z,95.00
2023-11-07T01:11:50.295Z,94.80
2023-11-07T01:13:53.473Z,94.40
2023-11-07T01:15:58.630Z,94.30
2023-11-07T01:18:05.855Z,94.50
2023-11-07T01:20:11.151Z,94.60
2023-11-07T01:22:18.881Z,94.70
2023-11-07T01:24:24.034Z,94.60
2023-11-07T01:26:26.656Z,94.30
2023-11-07T01:28:32.375Z,94.20
2023-11-07T01:30:37.492Z,94.00
2023-11-07T01:32:43.054Z,94.40
2023-11-07T01:34:48.223Z,94.00
2023-11-07T01:36:53.376Z,94.30
2023-11-07T01:39:01.819Z,94.10
2023-11-07T01:41:08.361Z,93.80
2023-11-07T01:43:18.458Z,94.20
2023-11-07T01:45:24.982Z,93.70
2023-11-07T01:47:30.331Z,93.60
2023-11-07T01:49:35.975Z,93.10
2023-11-07T01:51:41.736Z,93.10
2023-11-07T01:53:47.446Z,93.50
2023-11-07T01:55:55.388Z,93.30
2023-11-07T01:58:02.425Z,93.00
2023-11-07T02:00:13.095Z,92.40
2023-11-07T02:02:20.108Z,93.00
2023-11-07T02:04:26.326Z,93.10
2023-11-07T02:06:31.505Z,93.00
2023-11-07T02:08:38.127Z,93.10
2023-11-07T02:10:44.690Z,93.40
2023-11-07T02:12:55.099Z,93.10
2023-11-07T02:15:00.285Z,93.00
2023-11-07T02:17:05.899Z,92.80
2023-11-07T02:19:09.536Z,92.70
2023-11-07T02:21:15.189Z,92.70
2023-11-07T02:23:34.226Z,92.10
2023-11-07T02:25:40.098Z,92.40
2023-11-07T02:27:45.258Z,92.40
2023-11-07T02:29:50.458Z,92.80
2023-11-07T02:31:53.169Z,92.40
2023-11-07T02:33:58.885Z,92.70
2023-11-07T02:36:04.921Z,92.20
2023-11-07T02:38:08.287Z,92.40
2023-11-07T02:40:16.957Z,92.60
2023-11-07T02:42:22.056Z,92.60
2023-11-07T02:44:27.762Z,92.30
2023-11-07T02:46:32.907Z,92.40
2023-11-07T02:48:38.753Z,92.10
2023-11-07T02:50:45.937Z,92.30
2023-11-07T02:52:51.185Z,92.50
2023-11-07T02:54:53.722Z,91.90
2023-11-07T02:57:04.148Z,91.50
2023-11-07T02:59:10.639Z,91.90
2023-11-07T03:01:23.174Z,92.10
2023-11-07T03:03:28.381Z,91.60
2023-11-07T03:05:33.706Z,91.50
2023-11-07T03:07:39.695Z,92.30
2023-11-07T03:09:43.065Z,92.00
2023-11-07T03:11:48.306Z,91.50
2023-11-07T03:13:56.002Z,92.10
2023-11-07T03:16:01.367Z,91.90
2023-11-07T03:18:07.433Z,92.20
2023-11-07T03:20:13.641Z,92.30
2023-11-07T03:22:18.779Z,92.20
2023-11-07T03:24:23.937Z,92.10
2023-11-07T03:26:29.046Z,92.00
2023-11-07T03:28:34.252Z,92.00
2023-11-07T03:30:42.546Z,92.20
2023-11-07T03:32:48.291Z,92.20
2023-11-07T03:34:53.894Z,92.10
2023-11-07T03:36:56.560Z,92.00
2023-11-07T03:39:01.957Z,92.30
2023-11-07T03:41:09.205Z,92.40
2023-11-07T03:43:14.336Z,92.40
2023-11-07T03:45:19.619Z,92.30
2023-11-07T03:47:27.468Z,91.70
2023-11-07T03:49:32.790Z,91.90
2023-11-07T03:51:38.523Z,92.00
2023-11-07T03:53:44.106Z,91.80
2023-11-07T03:55:50.649Z,92.30
2023-11-07T03:57:56.078Z,92.00
2023-11-07T04:00:01.223Z,91.90
2023-11-07T04:02:06.919Z,92.10
2023-11-07T04:04:15.247Z,92.10
2023-11-07T04:06:21.000Z,91.90
2023-11-07T04:08:26.124Z,91.70
2023-11-07T04:10:31.657Z,91.60
2023-11-07T04:12:34.595Z,91.80
2023-11-07T04:14:39.740Z,92.20
2023-11-07T04:16:46.044Z,92.00
2023-11-07T04:18:52.879Z,91.80
2023-11-07T04:21:00.684Z,91.80
2023-11-07T04:23:08.123Z,92.00
2023-11-07T04:25:14.475Z,92.00
2023-11-07T04:27:20.172Z,92.20
2023-11-07T04:29:25.323Z,92.20
2023-11-07T04:31:31.402Z,92.20
2023-11-07T04:33:37.968Z,92.20
2023-11-07T04:35:43.736Z,92.20
2023-11-07T04:37:51.534Z,92.30
2023-11-07T04:39:56.668Z,92.50
2023-11-07T04:41:59.349Z,92.90
2023-11-07T04:44:04.924Z,93.10
2023-11-07T04:46:10.634Z,93.20
2023-11-07T04:48:15.914Z,93.30
2023-11-07T04:50:21.108Z,93.20
2023-11-07T04:52:26.238Z,93.50
2023-11-07T04:54:34.010Z,93.70
2023-11-07T04:56:39.154Z,93.70
2023-11-07T04:58:56.832Z,94.10
2023-11-07T05:01:04.176Z,94.20
2023-11-07T05:03:09.458Z,94.40
2023-11-07T05:05:16.007Z,94.40
2023-11-07T05:07:21.219Z,94.60
2023-11-07T05:09:26.852Z,94.60
2023-11-07T05:11:34.576Z,94.60
2023-11-07T05:13:39.800Z,94.50
2023-11-07T05:15:43.920Z,94.30
2023-11-07T05:17:50.130Z,94.30
2023-11-07T05:19:52.793Z,94.30
2023-11-07T05:21:57.929Z,94.10
2023-11-07T05:24:03.047Z,94.10
2023-11-07T05:26:11.308Z,93.90
2023-11-07T05:28:19.024Z,93.40
2023-11-07T05:30:24.296Z,93.40
2023-11-07T05:32:26.976Z,93.10
2023-11-07T05:34:32.511Z,92.80
2023-11-07T05:36:37.934Z,93.00
2023-11-07T05:38:40.530Z,93.30
2023-11-07T05:40:45.673Z,93.30
2023-11-07T05:42:51.557Z,93.70
2023-11-07T05:45:01.862Z,93.70
2023-11-07T05:47:08.404Z,93.60
2023-11-07T05:49:14.697Z,93.80
2023-11-07T05:51:19.884Z,94.00
2023-11-07T05:53:22.983Z,94.00
2023-11-07T05:55:28.152Z,94.00
2023-11-07T05:57:34.364Z,93.90
2023-11-07T05:59:40.534Z,94.00
2023-11-07T06:01:48.250Z,93.80
2023-11-07T06:03:56.216Z,93.80
2023-11-07T06:06:01.488Z,93.90
2023-11-07T06:08:08.496Z,94.10
2023-11-07T06:10:14.499Z,94.10
2023-11-07T06:12:19.677Z,94.20
2023-11-07T06:14:25.553Z,94.30
2023-11-07T06:16:30.760Z,94.30
2023-11-07T06:18:41.012Z,94.30
2023-11-07T06:20:46.345Z,94.10
2023-11-07T06:22:52.216Z,94.30
2023-11-07T06:24:58.163Z,94.10
2023-11-07T06:27:03.403Z,94.30
2023-11-07T06:29:09.123Z,94.40
2023-11-07T06:31:14.335Z,94.50
2023-11-07T06:33:20.944Z,94.50
2023-11-07T06:35:29.850Z,94.30
2023-11-07T06:37:34.984Z,94.40
2023-11-07T06:39:41.027Z,94.10
2023-11-07T06:41:46.176Z,94.10
2023-11-07T06:43:52.329Z,94.30
2023-11-07T06:45:58.478Z,94.40
2023-11-07T06:48:05.702Z,94.10
2023-11-07T06:50:14.609Z,94.10
2023-11-07T06:52:22.308Z,94.20
2023-11-07T06:54:27.509Z,94.40
2023-11-07T06:56:32.628Z,94.40
2023-11-07T06:58:40.990Z,94.30
2023-11-07T07:00:46.626Z,94.10
2023-11-07T07:02:49.949Z,93.70
2023-11-07T07:04:58.156Z,93.90
2023-11-07T07:07:03.841Z,94.30
2023-11-07T07:09:15.168Z,94.20
2023-11-07T07:11:21.810Z,94.20
2023-11-07T07:13:27.051Z,94.00
2023-11-07T07:15:32.638Z,94.10
2023-11-07T07:17:37.843Z,93.60
2023-11-07T07:19:43.009Z,93.50
2023-11-07T07:21:49.129Z,93.70
2023-11-07T07:23:54.339Z,92.90
2023-11-07T07:26:03.039Z,92.60
2023-11-07T07:28:08.717Z,92.60
2023-11-07T07:30:23.297Z,92.80
2023-11-07T07:32:30.407Z,92.40
2023-11-07T07:34:36.160Z,92.80
2023-11-07T07:36:49.314Z,92.30
2023-11-07T07:38:54.775Z,92.90
2023-11-07T07:41:02.762Z,92.50
2023-11-07T07:43:11.152Z,92.20
2023-11-07T07:45:16.460Z,92.50
2023-11-07T07:47:22.186Z,92.10
2023-11-07T07:49:28.152Z,92.30
2023-11-07T07:51:30.719Z,92.20
2023-11-07T07:53:37.841Z,92.50
2023-11-07T07:55:45.015Z,92.50
2023-11-07T07:57:54.735Z,91.30
2023-11-07T07:59:59.865Z,91.70
2023-11-07T08:02:07.789Z,91.70
2023-11-07T08:04:13.867Z,92.30
2023-11-07T08:06:20.734Z,92.90
2023-11-07T08:08:26.302Z,93.50
2023-11-07T08:10:31.564Z,94.20
2023-11-07T08:12:36.955Z,94.70
2023-11-07T08:14:47.874Z,94.60
2023-11-07T08:16:54.248Z,94.70
2023-11-07T08:18:59.824Z,94.70
2023-11-07T08:21:06.458Z,94.20
2023-11-07T08:23:12.270Z,94.10
2023-11-07T08:25:19.399Z,93.90
2023-11-07T08:27:25.025Z,93.20
2023-11-07T08:29:27.950Z,93.00
2023-11-07T08:31:36.143Z,93.20
2023-11-07T08:33:43.681Z,93.70
2023-11-07T08:35:48.963Z,93.20
2023-11-07T08:37:55.460Z,93.20
2023-11-07T08:40:01.059Z,93.60
2023-11-07T08:42:07.711Z,93.50
2023-11-07T08:44:12.809Z,94.10
2023-11-07T08:46:26.054Z,94.00
2023-11-07T08:48:35.031Z,94.40
2023-11-07T08:50:40.451Z,94.70
2023-11-07T08:52:48.570Z,94.70
2023-11-07T08:54:54.166Z,94.80
2023-11-07T08:56:59.299Z,95.10
2023-11-07T08:59:04.484Z,95.10
2023-11-07T09:01:11.389Z,95.20
2023-11-07T09:03:16.655Z,95.20
2023-11-07T09:05:26.111Z,95.20
2023-11-07T09:07:28.669Z,94.90
2023-11-07T09:09:35.461Z,95.40
2023-11-07T09:11:41.621Z,95.40
2023-11-07T09:13:47.217Z,95.60
2023-11-07T09:15:55.164Z,95.70
2023-11-07T09:18:01.142Z,95.80
2023-11-07T09:20:07.348Z,95.40
2023-11-07T09:22:15.056Z,95.10
2023-11-07T09:24:20.712Z,95.60
2023-11-07T09:26:25.862Z,95.70
2023-11-07T09:28:30.945Z,95.60
2023-11-07T09:30:36.044Z,95.00
2023-11-07T09:32:41.727Z,94.80
2023-11-07T09:34:46.946Z,94.70
2023-11-07T09:36:52.771Z,95.20
2023-11-07T09:39:03.406Z,94.90
2023-11-07T09:41:08.701Z,94.50
2023-11-07T09:43:17.446Z,94.00
2023-11-07T09:45:23.535Z,94.80
2023-11-07T09:47:30.195Z,94.70
2023-11-07T09:49:35.680Z,94.20
2023-11-07T09:51:41.216Z,94.10
2023-11-07T09:53:54.643Z,94.10
2023-11-07T09:56:02.969Z,94.10
2023-11-07T09:58:15.909Z,93.80
2023-11-07T10:00:22.680Z,92.90
2023-11-07T10:02:28.152Z,92.60
2023-11-07T10:04:34.797Z,93.70
2023-11-07T10:06:40.426Z,92.80
2023-11-07T10:08:46.372Z,93.50
2023-11-07T10:11:16.074Z,93.50
2023-11-07T10:13:21.163Z,94.00
2023-11-07T10:15:26.431Z,93.10
2023-11-07T10:17:31.702Z,93.90
2023-11-07T10:19:37.815Z,93.50
2023-11-07T10:21:42.978Z,94.00
2023-11-07T10:23:48.096Z,94.10
2023-11-07T10:25:53.643Z,94.30
2023-11-07T10:28:05.423Z,94.60
2023-11-07T10:30:13.446Z,94.80
2023-11-07T10:32:18.859Z,95.20
2023-11-07T10:34:24.023Z,94.80
2023-11-07T10:36:40.174Z,95.30
2023-11-07T10:38:45.254Z,94.90
2023-11-07T10:40:52.353Z,94.90
2023-11-07T10:43:00.428Z,95.10
2023-11-07T10:45:11.681Z,94.40
2023-11-07T10:47:19.056Z,94.30
2023-11-07T10:49:22.877Z,94.60
2023-11-07T10:51:30.698Z,94.40
2023-11-07T10:53:38.003Z,94.30
2023-11-07T10:55:43.478Z,93.60
2023-11-07T10:57:58.082Z,93.70
2023-11-07T11:00:14.245Z,94.10
2023-11-07T11:02:22.663Z,93.90
2023-11-07T11:04:33.048Z,93.70
2023-11-07T11:06:38.774Z,93.50
2023-11-07T11:08:46.669Z,94.20
2023-11-07T11:10:53.850Z,94.10
2023-11-07T11:12:58.034Z,93.60
2023-11-07T11:15:03.273Z,94.20
2023-11-07T11:17:26.663Z,93.40
2023-11-07T11:19:39.104Z,93.90
2023-11-07T11:21:53.378Z,93.40
2023-11-07T11:24:06.340Z,94.00
2023-11-07T11:26:32.383Z,93.90
2023-11-07T11:28:42.255Z,93.50
2023-11-07T11:30:58.993Z,94.10
2023-11-07T11:33:14.340Z,93.80
2023-11-07T11:35:34.928Z,94.10
2023-11-07T11:38:12.446Z,93.00
2023-11-07T11:40:54.640Z,93.30
2023-11-07T11:43:09.624Z,93.70
2023-11-07T11:47:54.588Z,93.60
2023-11-07T11:50:21.033Z,94.30
2023-11-07T11:52:37.079Z,93.70
2023-11-07T11:54:58.184Z,94.70
2023-11-07T11:57:11.647Z,94.50
2023-11-07T11:59:18.650Z,94.80
2023-11-07T12:01:25.441Z,94.80
2023-11-07T12:03:40.780Z,94.70
2023-11-07T12:06:07.901Z,95.30
2023-11-07T12:08:42.561Z,94.80
2023-11-07T12:10:59.620Z,95.50
2023-11-07T12:13:05.635Z,95.00
2023-11-07T12:15:09.623Z,94.80
2023-11-07T12:17:15.487Z,95.50
2023-11-07T12:19:23.841Z,95.70
2023-11-07T12:21:32.697Z,95.10
2023-11-07T12:23:36.004Z,95.20
2023-11-07T12:25:51.703Z,95.20
2023-11-07T12:28:07.677Z,94.50
2023-11-07T12:30:20.027Z,94.60
2023-11-07T12:32:25.995Z,94.90
2023-11-07T12:34:35.887Z,94.70
2023-11-07T12:36:43.865Z,94.70
2023-11-07T12:38:49.248Z,94.60
2023-11-07T12:40:52.074Z,94.40
2023-11-07T12:42:59.979Z,94.60
2023-11-07T12:45:08.136Z,94.50
2023-11-07T12:47:14.235Z,93.40
2023-11-07T12:49:18.553Z,93.90
2023-11-07T12:51:26.598Z,93.80
2023-11-07T12:53:34.367Z,92.70
2023-11-07T12:55:40.307Z,92.50
2023-11-07T12:57:45.419Z,92.40
2023-11-07T13:00:01.908Z,91.40
2023-11-07T13:02:07.321Z,91.80
2023-11-07T13:04:14.616Z,91.60
2023-11-07T13:06:23.499Z,90.90
2023-11-07T13:08:37.505Z,90.90
2023-11-07T13:10:42.852Z,90.00
2023-11-07T13:12:45.947Z,89.00
2023-11-07T13:14:51.770Z,89.00
2023-11-07T13:16:56.852Z,89.70
2023-11-07T13:19:00.405Z,89.70
2023-11-07T13:21:05.963Z,89.30
2023-11-07T13:23:11.086Z,89.60
2023-11-07T13:25:19.937Z,90.60
2023-11-07T13:27:25.166Z,88.90
2023-11-07T13:29:32.056Z,90.00
2023-11-07T13:31:37.206Z,91.10
2023-11-07T13:33:43.763Z,91.00
2023-11-07T13:35:50.366Z,90.40
2023-11-07T13:37:54.126Z,91.60
2023-11-07T13:39:59.808Z,92.10
2023-11-07T13:42:08.231Z,94.30
2023-11-07T13:44:14.334Z,93.80
2023-11-07T13:46:20.165Z,93.10
2023-11-07T13:48:23.737Z,94.30
2023-11-07T13:50:29.107Z,94.30
2023-11-07T13:52:34.247Z,93.80
2023-11-07T13:54:39.909Z,93.60
2023-11-07T13:56:45.037Z,93.40
2023-11-07T13:58:54.374Z,94.00
2023-11-07T14:01:00.065Z,93.30
2023-11-07T14:03:05.382Z,94.20
2023-11-07T14:05:12.660Z,93.90
2023-11-07T14:07:18.400Z,94.50
2023-11-07T14:09:24.241Z,94.20
2023-11-07T14:11:29.919Z,93.90
2023-11-07T14:13:34.984Z,94.60
2023-11-07T14:15:43.225Z,94.30
2023-11-07T14:17:48.839Z,94.40
2023-11-07T14:19:56.892Z,94.60
2023-11-07T14:22:02.666Z,94.70
2023-11-07T14:24:09.437Z,94.70
2023-11-07T14:26:15.166Z,94.30
2023-11-07T14:28:21.889Z,94.30
2023-11-07T14:30:37.613Z,94.00
2023-11-07T14:32:48.987Z,94.20
2023-11-07T14:34:52.652Z,94.50
2023-11-07T14:36:58.081Z,94.40
2023-11-07T14:39:04.898Z,91.90
2023-11-07T14:41:09.119Z,92.40
2023-11-07T14:43:17.429Z,92.80
2023-11-07T14:45:24.155Z,93.20
2023-11-07T14:47:27.032Z,92.40
2023-11-07T14:49:35.315Z,92.40
2023-11-07T14:51:41.131Z,92.50
2023-11-07T14:53:43.731Z,92.90
2023-11-07T14:55:50.827Z,93.10
2023-11-07T14:57:54.599Z,93.20
2023-11-07T15:00:02.576Z,93.40
2023-11-07T15:02:14.667Z,93.90
2023-11-07T15:04:27.537Z,93.80
2023-11-07T15:06:36.053Z,93.80
2023-11-07T15:08:41.230Z,93.70
2023-11-07T15:10:47.145Z,93.50
2023-11-07T15:12:53.127Z,93.70
2023-11-07T15:14:58.316Z,94.00
2023-11-07T15:17:03.548Z,94.20
2023-11-07T15:19:08.896Z,94.30
2023-11-07T15:21:14.682Z,94.40
2023-11-07T15:23:23.759Z,94.60
2023-11-07T15:25:31.746Z,94.60
2023-11-07T15:27:38.688Z,94.30
2023-11-07T15:29:44.132Z,94.30
2023-11-07T15:31:52.609Z,94.70
2023-11-07T15:33:59.104Z,95.00
2023-11-07T15:36:04.270Z,95.20
2023-11-07T15:38:10.787Z,93.50
2023-11-07T15:40:23.465Z,94.90
2023-11-07T15:42:29.585Z,94.60
2023-11-07T15:44:35.909Z,94.10
2023-11-07T15:46:42.194Z,93.80
2023-11-07T15:48:47.428Z,94.40
2023-11-07T15:50:53.119Z,95.10
2023-11-07T15:53:07.068Z,94.80
2023-11-07T15:55:15.305Z,95.20
2023-11-07T15:57:23.424Z,94.50
2023-11-07T15:59:28.548Z,94.70
2023-11-07T16:01:34.705Z,95.20
2023-11-07T16:03:41.718Z,95.40
2023-11-07T16:05:46.977Z,95.80
2023-11-07T16:07:52.914Z,95.90
2023-11-07T16:09:57.985Z,96.20
2023-11-07T16:12:03.208Z,96.60
2023-11-07T16:14:11.198Z,96.70
2023-11-07T16:16:16.401Z,96.80
2023-11-07T16:18:21.819Z,96.90
2023-11-07T16:20:28.059Z,96.40
2023-11-07T16:22:33.531Z,96.20
2023-11-07T16:24:39.101Z,96.30
2023-11-07T16:26:44.201Z,96.60
2023-11-07T16:28:50.432Z,95.90
2023-11-07T16:30:58.808Z,96.20
2023-11-07T16:33:04.023Z,96.00
2023-11-07T16:35:07.613Z,96.30
2023-11-07T16:37:12.688Z,96.40
2023-11-07T16:39:18.024Z,96.50
2023-11-07T16:41:23.664Z,96.50
2023-11-07T16:43:29.671Z,96.50
2023-11-07T16:45:34.898Z,96.60
2023-11-07T16:47:42.909Z,96.90
2023-11-07T16:49:48.519Z,96.80
2023-11-07T16:51:54.259Z,96.80
2023-11-07T16:53:59.621Z,96.90
2023-11-07T16:56:04.889Z,96.80
2023-11-07T16:58:10.198Z,97.10
2023-11-07T17:00:20.048Z,97.10
2023-11-07T17:02:24.465Z,97.10
2023-11-07T17:04:33.829Z,97.10
2023-11-07T17:06:39.027Z,97.20
2023-11-07T17:08:44.716Z,97.20
2023-11-07T17:10:50.856Z,97.10
2023-11-07T17:12:55.948Z,97.10
2023-11-07T17:14:58.488Z,97.10
2023-11-07T17:17:06.917Z,97.00
2023-11-07T17:19:12.587Z,97.00
2023-11-07T17:21:20.489Z,97.10
2023-11-07T17:23:23.017Z,97.00
2023-11-07T17:25:28.325Z,97.00
2023-11-07T17:27:33.519Z,96.70
2023-11-07T17:29:36.615Z,96.70
2023-11-07T17:31:42.254Z,96.90
2023-11-07T17:33:44.950Z,96.40
2023-11-07T17:35:50.120Z,96.70
2023-11-07T17:37:58.873Z,96.80
2023-11-07T17:40:07.245Z,96.40
2023-11-07T17:42:12.609Z,96.00
2023-11-07T17:44:19.313Z,96.70
2023-11-07T17:46:24.423Z,96.50
2023-11-07T17:48:30.196Z,96.90
2023-11-07T17:50:36.339Z,96.80
2023-11-07T17:52:41.552Z,97.10
2023-11-07T17:54:49.635Z,96.90
2023-11-07T17:56:55.083Z,96.80
2023-11-07T17:59:00.619Z,97.00
2023-11-07T18:01:06.621Z,97.00
2023-11-07T18:03:12.811Z,97.20
2023-11-07T18:05:18.207Z,97.40
2023-11-07T18:07:24.217Z,97.10
2023-11-07T18:09:29.880Z,97.20
2023-11-07T18:11:39.105Z,97.20
2023-11-07T18:13:44.483Z,97.20
2023-11-07T18:15:49.604Z,97.30
2023-11-07T18:17:54.770Z,97.30
2023-11-07T18:19:59.915Z,97.20
2023-11-07T18:22:06.245Z,97.30
2023-11-07T18:24:12.740Z,97.30
2023-11-07T18:26:23.137Z,97.30
2023-11-07T18:28:31.200Z,97.20
2023-11-07T18:30:36.341Z,97.10
2023-11-07T18:32:41.567Z,97.10
2023-11-07T18:34:47.404Z,97.20
2023-11-07T18:37:01.780Z,96.80
2023-11-07T18:39:09.034Z,96.30
2023-11-07T18:41:14.227Z,96.90
2023-11-07T18:43:22.228Z,97.10
2023-11-07T18:45:30.352Z,97.20
2023-11-07T18:47:32.881Z,97.30
2023-11-07T18:49:38.059Z,97.00
2023-11-07T18:51:43.839Z,97.20
2023-11-07T18:53:51.258Z,97.20
2023-11-07T18:55:58.727Z,97.20
2023-11-07T18:58:04.576Z,97.00
2023-11-07T19:00:13.355Z,97.20
2023-11-07T19:02:19.582Z,96.80
2023-11-07T19:04:25.800Z,97.00
2023-11-07T19:06:31.174Z,97.00
2023-11-07T19:08:36.394Z,97.00
2023-11-07T19:10:42.872Z,97.20
2023-11-07T19:12:48.194Z,97.10
2023-11-07T19:14:55.852Z,97.20
2023-11-07T19:17:02.142Z,97.00
2023-11-07T19:19:10.187Z,96.90
2023-11-07T19:21:15.363Z,96.90
2023-11-07T19:23:21.657Z,97.00
2023-11-07T19:25:27.803Z,96.70
2023-11-07T19:27:34.451Z,96.70
2023-11-07T19:29:40.375Z,96.80
2023-11-07T19:31:48.363Z,97.00
2023-11-07T19:33:53.606Z,97.00
2023-11-07T19:36:03.969Z,96.80
2023-11-07T19:38:09.430Z,96.80
2023-11-07T19:40:20.239Z,96.60
2023-11-07T19:42:27.901Z,96.80
2023-11-07T19:44:33.274Z,96.10
2023-11-07T19:46:38.432Z,96.20
2023-11-07T19:48:44.528Z,96.10
2023-11-07T19:50:50.250Z,96.30
2023-11-07T19:53:06.467Z,96.10
2023-11-07T19:55:17.182Z,96.20
2023-11-07T19:57:22.334Z,96.20
2023-11-07T19:59:27.710Z,96.40
2023-11-07T20:01:33.307Z,96.40
2023-11-07T20:03:38.594Z,96.20
2023-11-07T20:05:46.280Z,96.10
2023-11-07T20:07:56.219Z,96.30
2023-11-07T20:10:04.877Z,96.40
2023-11-07T20:12:11.140Z,96.10
2023-11-07T20:14:16.621Z,96.20
2023-11-07T20:16:21.935Z,95.80
2023-11-07T20:18:29.904Z,95.40
2023-11-07T20:20:36.589Z,95.30
2023-11-07T20:22:41.975Z,95.00
2023-11-07T20:24:47.897Z,95.30
2023-11-07T20:26:55.599Z,95.20
2023-11-07T20:29:00.703Z,95.20
2023-11-07T20:31:06.043Z,95.20
2023-11-07T20:33:11.554Z,95.50
2023-11-07T20:35:17.591Z,95.90
2023-11-07T20:37:23.471Z,95.50
2023-11-07T20:39:29.369Z,95.60
2023-11-07T20:41:37.427Z,95.60
2023-11-07T20:43:45.308Z,95.70
2023-11-07T20:45:50.595Z,95.50
2023-11-07T20:47:55.766Z,95.30
2023-11-07T20:50:01.015Z,95.00
2023-11-07T20:52:15.187Z,95.20
2023-11-07T20:54:28.737Z,95.10
2023-11-07T20:56:34.830Z,95.10
2023-11-07T20:58:40.742Z,94.70
2023-11-07T21:00:48.523Z,94.70
2023-11-07T21:02:55.142Z,94.30
2023-11-07T21:05:00.657Z,94.80
2023-11-07T21:07:05.973Z,94.50
2023-11-07T21:09:15.787Z,94.40
2023-11-07T21:11:22.494Z,94.50
2023-11-07T21:13:28.497Z,94.40
2023-11-07T21:15:33.732Z,94.40
2023-11-07T21:17:41.992Z,94.20
2023-11-07T21:19:48.609Z,94.50
2023-11-07T21:22:00.331Z,94.60
2023-11-07T21:24:05.637Z,94.60
2023-11-07T21:26:10.779Z,94.80
2023-11-07T21:28:13.668Z,94.20
2023-11-07T21:30:19.192Z,94.10
2023-11-07T21:32:24.470Z,94.00
2023-11-07T21:34:32.198Z,94.30
2023-11-07T21:36:42.460Z,93.90
2023-11-07T21:38:46.354Z,94.00
2023-11-07T21:40:52.085Z,93.80
2023-11-07T21:42:57.332Z,93.80
2023-11-07T21:45:03.357Z,94.30
2023-11-07T21:47:08.821Z,94.40
2023-11-07T21:49:14.107Z,94.30
2023-11-07T21:51:22.428Z,94.20
2023-11-07T21:53:28.192Z,94.20
2023-11-07T21:55:33.315Z,94.20
2023-11-07T21:57:38.569Z,94.00
2023-11-07T21:59:43.730Z,93.90
2023-11-07T22:01:49.967Z,94.10
2023-11-07T22:03:55.186Z,94.30
2023-11-07T22:06:00.418Z,94.20
2023-11-07T22:08:08.608Z,93.60
2023-11-07T22:10:15.930Z,93.90
2023-11-07T22:12:18.465Z,93.50
2023-11-07T22:14:23.588Z,93.40
2023-11-07T22:16:29.928Z,93.40
2023-11-07T22:18:35.990Z,93.80
2023-11-07T22:20:43.140Z,93.30
2023-11-07T22:22:49.244Z,93.50
2023-11-07T22:24:55.177Z,93.50
2023-11-07T22:27:00.292Z,93.70
2023-11-07T22:29:06.841Z,93.50
2023-11-07T22:31:12.011Z,93.60
2023-11-07T22:33:17.931Z,93.80
2023-11-07T22:35:22.432Z,93.80
2023-11-07T22:37:28.109Z,93.70
2023-11-07T22:39:33.698Z,93.40
2023-11-07T22:41:41.878Z,93.60
2023-11-07T22:43:47.029Z,93.70
2023-11-07T22:45:52.195Z,93.50
2023-11-07T22:47:57.924Z,93.10
2023-11-07T22:50:03.167Z,93.50
2023-11-07T22:52:10.104Z,93.30
2023-11-07T22:54:15.278Z,93.10
2023-11-07T22:56:21.214Z,92.90
2023-11-07T22:58:28.909Z,93.00
2023-11-07T23:00:41.836Z,93.20
2023-11-07T23:02:47.963Z,93.50
2023-11-07T23:04:53.905Z,92.70
2023-11-07T23:06:59.629Z,93.30
2023-11-07T23:09:05.812Z,93.60
2023-11-07T23:11:10.942Z,92.90
2023-11-07T23:13:15.370Z,93.30
2023-11-07T23:15:23.146Z,93.20
2023-11-07T23:17:28.585Z,93.30
2023-11-07T23:19:33.757Z,93.50
2023-11-07T23:21:40.672Z,93.90
2023-11-07T23:23:46.952Z,93.90
2023-11-07T23:25:52.233Z,94.00
2023-11-07T23:27:58.725Z,93.60
2023-11-07T23:30:03.870Z,94.30
2023-11-07T23:32:11.739Z,94.60
2023-11-07T23:34:18.322Z,94.70
2023-11-07T23:36:23.711Z,95.10
2023-11-07T23:38:30.105Z,95.30
2023-11-07T23:40:37.023Z,95.20
2023-11-07T23:42:45.078Z,95.20
2023-11-07T23:44:50.933Z,95.60
2023-11-07T23:46:56.079Z,95.30
2023-11-07T23:49:02.112Z,95.60
2023-11-07T23:51:08.090Z,95.60
2023-11-07T23:53:13.606Z,95.50
2023-11-07T23:55:19.049Z,95.20
2023-11-07T23:57:24.978Z,95.40
2023-11-07T23:59:31.737Z,95.70
